sensor_id;sensor_type;location;lat;lon;timestamp;P1;durP1;ratioP1;P2;durP2;ratioP2
49109;SDS011;34921;52.320;16.142;2023-07-08T00:01:16;11.20;;;6.42;;
49109;SDS011;34921;52.320;16.142;2023-07-08T00:03:46;9.40;;;6.60;;
49109;SDS011;34921;52.320;16.142;2023-07-08T00:06:25;11.88;;;6.55;;
49109;SDS011;34921;52.320;16.142;2023-07-08T00:08:53;12.97;;;7.07;;
49109;SDS011;34921;52.320;16.142;2023-07-08T00:11:20;17.55;;;7.72;;
49109;SDS011;34921;52.320;16.142;2023-07-08T00:13:47;13.00;;;6.92;;
49109;SDS011;34921;52.320;16.142;2023-07-08T00:16:15;9.88;;;6.33;;
49109;SDS011;34921;52.320;16.142;2023-07-08T00:18:44;12.10;;;6.47;;
49109;SDS011;34921;52.320;16.142;2023-07-08T00:21:12;11.00;;;7.28;;
49109;SDS011;34921;52.320;16.142;2023-07-08T00:23:47;16.02;;;7.50;;
49109;SDS011;34921;52.320;16.142;2023-07-08T00:26:36;11.30;;;7.03;;
49109;SDS011;34921;52.320;16.142;2023-07-08T00:29:02;12.58;;;7.65;;
49109;SDS011;34921;52.320;16.142;2023-07-08T00:31:29;11.78;;;7.35;;
49109;SDS011;34921;52.320;16.142;2023-07-08T00:33:58;10.95;;;7.17;;
49109;SDS011;34921;52.320;16.142;2023-07-08T00:36:27;12.18;;;7.42;;
49109;SDS011;34921;52.320;16.142;2023-07-08T00:38:54;11.50;;;6.75;;
49109;SDS011;34921;52.320;16.142;2023-07-08T00:41:23;10.58;;;6.05;;
49109;SDS011;34921;52.320;16.142;2023-07-08T00:43:55;11.53;;;7.17;;
49109;SDS011;34921;52.320;16.142;2023-07-08T00:51:30;10.28;;;6.25;;
49109;SDS011;34921;52.320;16.142;2023-07-08T00:53:57;10.58;;;6.25;;
49109;SDS011;34921;52.320;16.142;2023-07-08T01:01:36;12.82;;;7.17;;
49109;SDS011;34921;52.320;16.142;2023-07-08T01:04:07;16.90;;;7.28;;
49109;SDS011;34921;52.320;16.142;2023-07-08T01:06:41;13.43;;;7.28;;
49109;SDS011;34921;52.320;16.142;2023-07-08T01:09:11;10.88;;;6.85;;
49109;SDS011;34921;52.320;16.142;2023-07-08T01:11:40;12.35;;;7.17;;
49109;SDS011;34921;52.320;16.142;2023-07-08T01:14:08;12.60;;;7.15;;
49109;SDS011;34921;52.320;16.142;2023-07-08T01:16:37;12.70;;;7.33;;
49109;SDS011;34921;52.320;16.142;2023-07-08T01:19:05;13.55;;;7.10;;
49109;SDS011;34921;52.320;16.142;2023-07-08T01:21:44;14.73;;;8.25;;
49109;SDS011;34921;52.320;16.142;2023-07-08T01:24:14;10.88;;;7.42;;
49109;SDS011;34921;52.320;16.142;2023-07-08T01:26:42;10.80;;;6.97;;
49109;SDS011;34921;52.320;16.142;2023-07-08T01:29:11;11.60;;;7.12;;
49109;SDS011;34921;52.320;16.142;2023-07-08T01:31:38;14.45;;;7.17;;
49109;SDS011;34921;52.320;16.142;2023-07-08T01:34:07;13.80;;;7.62;;
49109;SDS011;34921;52.320;16.142;2023-07-08T01:36:37;12.88;;;7.45;;
49109;SDS011;34921;52.320;16.142;2023-07-08T01:39:11;13.32;;;7.15;;
49109;SDS011;34921;52.320;16.142;2023-07-08T01:41:39;13.68;;;7.40;;
49109;SDS011;34921;52.320;16.142;2023-07-08T01:44:18;15.17;;;7.00;;
49109;SDS011;34921;52.320;16.142;2023-07-08T01:46:47;12.13;;;6.65;;
49109;SDS011;34921;52.320;16.142;2023-07-08T01:49:14;13.93;;;6.78;;
49109;SDS011;34921;52.320;16.142;2023-07-08T01:51:41;10.75;;;6.78;;
49109;SDS011;34921;52.320;16.142;2023-07-08T01:54:09;12.37;;;6.75;;
49109;SDS011;34921;52.320;16.142;2023-07-08T01:56:36;14.85;;;7.17;;
49109;SDS011;34921;52.320;16.142;2023-07-08T01:59:03;12.90;;;7.37;;
49109;SDS011;34921;52.320;16.142;2023-07-08T02:01:29;13.25;;;6.75;;
49109;SDS011;34921;52.320;16.142;2023-07-08T02:03:56;14.68;;;8.00;;
49109;SDS011;34921;52.320;16.142;2023-07-08T02:06:23;15.13;;;8.30;;
49109;SDS011;34921;52.320;16.142;2023-07-08T02:08:50;15.85;;;8.78;;
49109;SDS011;34921;52.320;16.142;2023-07-08T02:11:17;14.23;;;8.20;;
49109;SDS011;34921;52.320;16.142;2023-07-08T02:13:44;13.80;;;8.23;;
49109;SDS011;34921;52.320;16.142;2023-07-08T02:16:11;14.90;;;7.87;;
49109;SDS011;34921;52.320;16.142;2023-07-08T02:18:38;14.87;;;8.05;;
49109;SDS011;34921;52.320;16.142;2023-07-08T02:21:05;15.38;;;7.28;;
49109;SDS011;34921;52.320;16.142;2023-07-08T02:23:32;14.35;;;7.65;;
49109;SDS011;34921;52.320;16.142;2023-07-08T02:25:59;14.83;;;7.85;;
49109;SDS011;34921;52.320;16.142;2023-07-08T02:28:27;18.32;;;8.28;;
49109;SDS011;34921;52.320;16.142;2023-07-08T02:30:54;16.42;;;8.35;;
49109;SDS011;34921;52.320;16.142;2023-07-08T02:33:21;16.35;;;7.70;;
49109;SDS011;34921;52.320;16.142;2023-07-08T02:35:54;13.80;;;7.70;;
49109;SDS011;34921;52.320;16.142;2023-07-08T02:38:21;13.90;;;7.40;;
49109;SDS011;34921;52.320;16.142;2023-07-08T02:40:48;12.63;;;7.28;;
49109;SDS011;34921;52.320;16.142;2023-07-08T02:43:15;14.50;;;7.20;;
49109;SDS011;34921;52.320;16.142;2023-07-08T02:45:42;13.00;;;7.70;;
49109;SDS011;34921;52.320;16.142;2023-07-08T02:48:09;13.53;;;6.90;;
49109;SDS011;34921;52.320;16.142;2023-07-08T02:50:35;13.03;;;7.70;;
49109;SDS011;34921;52.320;16.142;2023-07-08T02:53:02;14.70;;;7.15;;
49109;SDS011;34921;52.320;16.142;2023-07-08T02:55:29;12.10;;;7.42;;
49109;SDS011;34921;52.320;16.142;2023-07-08T02:57:57;13.28;;;7.83;;
49109;SDS011;34921;52.320;16.142;2023-07-08T03:00:24;11.05;;;6.85;;
49109;SDS011;34921;52.320;16.142;2023-07-08T03:02:51;11.25;;;7.30;;
49109;SDS011;34921;52.320;16.142;2023-07-08T03:05:18;11.83;;;6.47;;
49109;SDS011;34921;52.320;16.142;2023-07-08T03:07:45;13.40;;;7.08;;
49109;SDS011;34921;52.320;16.142;2023-07-08T03:10:12;10.35;;;6.72;;
49109;SDS011;34921;52.320;16.142;2023-07-08T03:12:39;14.50;;;6.62;;
49109;SDS011;34921;52.320;16.142;2023-07-08T03:15:06;13.93;;;7.40;;
49109;SDS011;34921;52.320;16.142;2023-07-08T03:17:33;11.12;;;7.05;;
49109;SDS011;34921;52.320;16.142;2023-07-08T03:20:00;12.05;;;6.80;;
49109;SDS011;34921;52.320;16.142;2023-07-08T03:22:27;11.35;;;7.00;;
49109;SDS011;34921;52.320;16.142;2023-07-08T03:24:54;11.35;;;6.25;;
49109;SDS011;34921;52.320;16.142;2023-07-08T03:27:22;14.35;;;7.00;;
49109;SDS011;34921;52.320;16.142;2023-07-08T03:29:49;11.75;;;6.85;;
49109;SDS011;34921;52.320;16.142;2023-07-08T03:32:16;13.58;;;6.87;;
49109;SDS011;34921;52.320;16.142;2023-07-08T03:34:43;9.98;;;6.28;;
49109;SDS011;34921;52.320;16.142;2023-07-08T03:37:09;10.63;;;6.40;;
49109;SDS011;34921;52.320;16.142;2023-07-08T03:39:36;12.68;;;5.97;;
49109;SDS011;34921;52.320;16.142;2023-07-08T03:42:03;10.85;;;6.45;;
49109;SDS011;34921;52.320;16.142;2023-07-08T03:44:31;11.15;;;6.95;;
49109;SDS011;34921;52.320;16.142;2023-07-08T03:46:58;11.03;;;7.47;;
49109;SDS011;34921;52.320;16.142;2023-07-08T03:49:25;11.80;;;7.33;;
49109;SDS011;34921;52.320;16.142;2023-07-08T03:51:52;10.45;;;6.10;;
49109;SDS011;34921;52.320;16.142;2023-07-08T03:54:20;15.85;;;6.65;;
49109;SDS011;34921;52.320;16.142;2023-07-08T03:56:49;10.05;;;6.45;;
49109;SDS011;34921;52.320;16.142;2023-07-08T03:59:17;10.38;;;6.50;;
49109;SDS011;34921;52.320;16.142;2023-07-08T04:01:45;10.15;;;6.00;;
49109;SDS011;34921;52.320;16.142;2023-07-08T04:04:12;12.10;;;6.58;;
49109;SDS011;34921;52.320;16.142;2023-07-08T04:06:41;10.72;;;6.53;;
49109;SDS011;34921;52.320;16.142;2023-07-08T04:09:08;12.03;;;6.95;;
49109;SDS011;34921;52.320;16.142;2023-07-08T04:11:35;12.50;;;6.50;;
49109;SDS011;34921;52.320;16.142;2023-07-08T04:14:02;14.10;;;6.30;;
49109;SDS011;34921;52.320;16.142;2023-07-08T04:16:29;11.55;;;7.00;;
49109;SDS011;34921;52.320;16.142;2023-07-08T04:19:24;9.85;;;7.28;;
49109;SDS011;34921;52.320;16.142;2023-07-08T04:21:53;11.85;;;6.90;;
49109;SDS011;34921;52.320;16.142;2023-07-08T04:24:20;11.35;;;7.55;;
49109;SDS011;34921;52.320;16.142;2023-07-08T04:26:47;12.28;;;6.62;;
49109;SDS011;34921;52.320;16.142;2023-07-08T04:29:16;10.05;;;6.28;;
49109;SDS011;34921;52.320;16.142;2023-07-08T04:31:44;11.70;;;5.70;;
49109;SDS011;34921;52.320;16.142;2023-07-08T04:34:11;10.88;;;5.85;;
49109;SDS011;34921;52.320;16.142;2023-07-08T04:36:38;13.53;;;6.75;;
49109;SDS011;34921;52.320;16.142;2023-07-08T04:39:06;9.98;;;5.80;;
49109;SDS011;34921;52.320;16.142;2023-07-08T04:41:37;13.68;;;6.60;;
49109;SDS011;34921;52.320;16.142;2023-07-08T04:44:07;9.63;;;5.80;;
49109;SDS011;34921;52.320;16.142;2023-07-08T04:46:35;8.73;;;5.22;;
49109;SDS011;34921;52.320;16.142;2023-07-08T04:49:12;17.07;;;5.85;;
49109;SDS011;34921;52.320;16.142;2023-07-08T04:51:40;12.68;;;6.97;;
49109;SDS011;34921;52.320;16.142;2023-07-08T04:54:08;14.45;;;6.60;;
49109;SDS011;34921;52.320;16.142;2023-07-08T04:56:45;14.18;;;7.33;;
49109;SDS011;34921;52.320;16.142;2023-07-08T04:59:14;10.20;;;6.28;;
49109;SDS011;34921;52.320;16.142;2023-07-08T05:01:43;16.60;;;7.28;;
49109;SDS011;34921;52.320;16.142;2023-07-08T05:04:12;12.73;;;6.60;;
49109;SDS011;34921;52.320;16.142;2023-07-08T05:06:40;12.80;;;5.67;;
49109;SDS011;34921;52.320;16.142;2023-07-08T05:09:08;14.35;;;6.75;;
49109;SDS011;34921;52.320;16.142;2023-07-08T05:11:35;13.35;;;6.15;;
49109;SDS011;34921;52.320;16.142;2023-07-08T05:14:03;10.55;;;5.75;;
49109;SDS011;34921;52.320;16.142;2023-07-08T05:16:32;14.80;;;5.95;;
49109;SDS011;34921;52.320;16.142;2023-07-08T05:19:00;9.68;;;5.35;;
49109;SDS011;34921;52.320;16.142;2023-07-08T05:21:28;13.72;;;5.85;;
49109;SDS011;34921;52.320;16.142;2023-07-08T05:24:00;8.25;;;4.75;;
49109;SDS011;34921;52.320;16.142;2023-07-08T05:26:28;7.30;;;5.45;;
49109;SDS011;34921;52.320;16.142;2023-07-08T05:28:55;8.35;;;5.03;;
49109;SDS011;34921;52.320;16.142;2023-07-08T05:31:22;7.37;;;4.87;;
49109;SDS011;34921;52.320;16.142;2023-07-08T05:33:49;9.33;;;4.70;;
49109;SDS011;34921;52.320;16.142;2023-07-08T05:36:17;8.08;;;5.37;;
49109;SDS011;34921;52.320;16.142;2023-07-08T05:38:44;7.10;;;4.80;;
49109;SDS011;34921;52.320;16.142;2023-07-08T05:41:11;8.13;;;4.70;;
49109;SDS011;34921;52.320;16.142;2023-07-08T05:43:39;6.70;;;4.12;;
49109;SDS011;34921;52.320;16.142;2023-07-08T05:46:07;9.70;;;5.17;;
49109;SDS011;34921;52.320;16.142;2023-07-08T05:48:35;8.60;;;4.85;;
49109;SDS011;34921;52.320;16.142;2023-07-08T05:51:02;7.55;;;4.65;;
49109;SDS011;34921;52.320;16.142;2023-07-08T05:53:29;7.83;;;4.67;;
49109;SDS011;34921;52.320;16.142;2023-07-08T05:55:56;8.35;;;4.67;;
49109;SDS011;34921;52.320;16.142;2023-07-08T05:58:23;6.87;;;4.30;;
49109;SDS011;34921;52.320;16.142;2023-07-08T06:00:54;6.03;;;4.15;;
49109;SDS011;34921;52.320;16.142;2023-07-08T06:03:23;7.55;;;4.47;;
49109;SDS011;34921;52.320;16.142;2023-07-08T06:05:50;8.33;;;4.20;;
49109;SDS011;34921;52.320;16.142;2023-07-08T06:08:17;8.03;;;4.30;;
49109;SDS011;34921;52.320;16.142;2023-07-08T06:10:44;7.40;;;4.20;;
49109;SDS011;34921;52.320;16.142;2023-07-08T06:13:12;7.90;;;4.28;;
49109;SDS011;34921;52.320;16.142;2023-07-08T06:15:39;7.90;;;3.83;;
49109;SDS011;34921;52.320;16.142;2023-07-08T06:18:07;6.45;;;4.03;;
49109;SDS011;34921;52.320;16.142;2023-07-08T06:20:35;7.85;;;4.20;;
49109;SDS011;34921;52.320;16.142;2023-07-08T06:23:02;5.87;;;4.00;;
49109;SDS011;34921;52.320;16.142;2023-07-08T06:25:31;5.67;;;4.30;;
49109;SDS011;34921;52.320;16.142;2023-07-08T06:27:59;6.78;;;4.33;;
49109;SDS011;34921;52.320;16.142;2023-07-08T06:30:26;7.80;;;4.85;;
49109;SDS011;34921;52.320;16.142;2023-07-08T06:32:53;7.92;;;4.53;;
49109;SDS011;34921;52.320;16.142;2023-07-08T06:35:20;7.03;;;4.25;;
49109;SDS011;34921;52.320;16.142;2023-07-08T06:37:47;7.78;;;5.05;;
49109;SDS011;34921;52.320;16.142;2023-07-08T06:40:15;8.43;;;4.60;;
49109;SDS011;34921;52.320;16.142;2023-07-08T06:42:44;10.40;;;5.15;;
49109;SDS011;34921;52.320;16.142;2023-07-08T06:45:11;9.80;;;4.10;;
49109;SDS011;34921;52.320;16.142;2023-07-08T06:47:38;8.35;;;4.03;;
49109;SDS011;34921;52.320;16.142;2023-07-08T06:50:06;6.35;;;3.65;;
49109;SDS011;34921;52.320;16.142;2023-07-08T06:52:34;6.35;;;3.52;;
49109;SDS011;34921;52.320;16.142;2023-07-08T06:55:05;7.33;;;3.50;;
49109;SDS011;34921;52.320;16.142;2023-07-08T06:57:34;5.33;;;3.47;;
49109;SDS011;34921;52.320;16.142;2023-07-08T07:00:02;7.15;;;3.50;;
49109;SDS011;34921;52.320;16.142;2023-07-08T07:02:30;5.90;;;3.77;;
49109;SDS011;34921;52.320;16.142;2023-07-08T07:04:57;5.08;;;3.20;;
49109;SDS011;34921;52.320;16.142;2023-07-08T07:07:24;7.10;;;3.50;;
49109;SDS011;34921;52.320;16.142;2023-07-08T07:09:53;5.60;;;3.15;;
49109;SDS011;34921;52.320;16.142;2023-07-08T07:12:20;5.12;;;2.92;;
49109;SDS011;34921;52.320;16.142;2023-07-08T07:14:48;8.75;;;3.65;;
49109;SDS011;34921;52.320;16.142;2023-07-08T07:17:16;11.20;;;3.42;;
49109;SDS011;34921;52.320;16.142;2023-07-08T07:19:43;9.17;;;3.77;;
49109;SDS011;34921;52.320;16.142;2023-07-08T07:22:10;11.80;;;4.53;;
49109;SDS011;34921;52.320;16.142;2023-07-08T07:24:37;41.48;;;13.28;;
49109;SDS011;34921;52.320;16.142;2023-07-08T07:27:05;10.70;;;4.78;;
49109;SDS011;34921;52.320;16.142;2023-07-08T07:29:45;6.42;;;3.52;;
49109;SDS011;34921;52.320;16.142;2023-07-08T07:32:17;5.30;;;3.03;;
49109;SDS011;34921;52.320;16.142;2023-07-08T07:34:46;5.10;;;2.80;;
49109;SDS011;34921;52.320;16.142;2023-07-08T07:37:15;4.78;;;2.55;;
49109;SDS011;34921;52.320;16.142;2023-07-08T07:39:44;17.10;;;7.07;;
49109;SDS011;34921;52.320;16.142;2023-07-08T07:42:12;8.60;;;4.00;;
49109;SDS011;34921;52.320;16.142;2023-07-08T07:44:40;5.55;;;2.87;;
49109;SDS011;34921;52.320;16.142;2023-07-08T07:47:08;6.50;;;3.03;;
49109;SDS011;34921;52.320;16.142;2023-07-08T07:49:36;3.85;;;2.80;;
49109;SDS011;34921;52.320;16.142;2023-07-08T07:52:03;4.92;;;2.87;;
49109;SDS011;34921;52.320;16.142;2023-07-08T07:54:31;6.83;;;3.10;;
49109;SDS011;34921;52.320;16.142;2023-07-08T07:56:58;6.30;;;3.08;;
49109;SDS011;34921;52.320;16.142;2023-07-08T07:59:25;11.22;;;3.37;;
49109;SDS011;34921;52.320;16.142;2023-07-08T08:01:52;7.37;;;2.90;;
49109;SDS011;34921;52.320;16.142;2023-07-08T08:04:19;8.28;;;5.00;;
49109;SDS011;34921;52.320;16.142;2023-07-08T08:06:45;4.05;;;3.17;;
49109;SDS011;34921;52.320;16.142;2023-07-08T08:09:13;5.40;;;3.02;;
49109;SDS011;34921;52.320;16.142;2023-07-08T08:11:40;44.20;;;18.67;;
49109;SDS011;34921;52.320;16.142;2023-07-08T08:14:08;10.43;;;4.53;;
49109;SDS011;34921;52.320;16.142;2023-07-08T08:16:35;5.90;;;3.87;;
49109;SDS011;34921;52.320;16.142;2023-07-08T08:19:02;7.72;;;3.15;;
49109;SDS011;34921;52.320;16.142;2023-07-08T08:21:29;6.90;;;3.50;;
49109;SDS011;34921;52.320;16.142;2023-07-08T08:23:56;6.05;;;2.90;;
49109;SDS011;34921;52.320;16.142;2023-07-08T08:26:25;4.03;;;2.87;;
49109;SDS011;34921;52.320;16.142;2023-07-08T08:28:52;4.33;;;2.92;;
49109;SDS011;34921;52.320;16.142;2023-07-08T08:31:19;5.00;;;2.65;;
49109;SDS011;34921;52.320;16.142;2023-07-08T08:33:46;5.35;;;2.70;;
49109;SDS011;34921;52.320;16.142;2023-07-08T08:36:13;3.87;;;2.40;;
49109;SDS011;34921;52.320;16.142;2023-07-08T08:38:40;4.87;;;2.80;;
49109;SDS011;34921;52.320;16.142;2023-07-08T08:41:14;3.62;;;2.30;;
49109;SDS011;34921;52.320;16.142;2023-07-08T08:43:43;5.83;;;2.80;;
49109;SDS011;34921;52.320;16.142;2023-07-08T08:46:13;5.25;;;2.60;;
49109;SDS011;34921;52.320;16.142;2023-07-08T08:51:38;3.80;;;2.17;;
49109;SDS011;34921;52.320;16.142;2023-07-08T08:54:06;4.90;;;1.92;;
49109;SDS011;34921;52.320;16.142;2023-07-08T08:56:58;6.08;;;2.42;;
49109;SDS011;34921;52.320;16.142;2023-07-08T09:02:38;3.87;;;2.30;;
49109;SDS011;34921;52.320;16.142;2023-07-08T09:05:09;5.83;;;2.30;;
49109;SDS011;34921;52.320;16.142;2023-07-08T09:13:41;3.60;;;2.10;;
49109;SDS011;34921;52.320;16.142;2023-07-08T09:19:08;3.95;;;2.37;;
49109;SDS011;34921;52.320;16.142;2023-07-08T09:21:44;3.50;;;2.33;;
49109;SDS011;34921;52.320;16.142;2023-07-08T09:24:39;4.80;;;2.20;;
49109;SDS011;34921;52.320;16.142;2023-07-08T09:27:12;3.60;;;2.17;;
49109;SDS011;34921;52.320;16.142;2023-07-08T09:29:39;4.67;;;2.27;;
49109;SDS011;34921;52.320;16.142;2023-07-08T09:32:15;4.97;;;2.42;;
49109;SDS011;34921;52.320;16.142;2023-07-08T09:34:45;43.75;;;4.55;;
49109;SDS011;34921;52.320;16.142;2023-07-08T09:37:33;9.00;;;2.98;;
49109;SDS011;34921;52.320;16.142;2023-07-08T09:45:42;4.90;;;2.40;;
49109;SDS011;34921;52.320;16.142;2023-07-08T09:48:16;7.85;;;2.62;;
49109;SDS011;34921;52.320;16.142;2023-07-08T09:50:52;10.18;;;2.72;;
49109;SDS011;34921;52.320;16.142;2023-07-08T09:53:20;5.90;;;2.73;;
49109;SDS011;34921;52.320;16.142;2023-07-08T09:55:47;5.28;;;2.08;;
49109;SDS011;34921;52.320;16.142;2023-07-08T09:58:27;6.28;;;2.45;;
49109;SDS011;34921;52.320;16.142;2023-07-08T10:01:10;3.10;;;2.15;;
49109;SDS011;34921;52.320;16.142;2023-07-08T10:03:39;4.95;;;2.10;;
49109;SDS011;34921;52.320;16.142;2023-07-08T10:06:16;4.60;;;2.30;;
49109;SDS011;34921;52.320;16.142;2023-07-08T10:08:54;3.25;;;1.90;;
49109;SDS011;34921;52.320;16.142;2023-07-08T10:11:26;4.50;;;2.17;;
49109;SDS011;34921;52.320;16.142;2023-07-08T10:14:08;3.25;;;2.12;;
49109;SDS011;34921;52.320;16.142;2023-07-08T10:16:38;5.33;;;2.15;;
49109;SDS011;34921;52.320;16.142;2023-07-08T10:19:18;4.50;;;2.08;;
49109;SDS011;34921;52.320;16.142;2023-07-08T10:30:22;4.00;;;2.33;;
49109;SDS011;34921;52.320;16.142;2023-07-08T10:33:03;3.40;;;2.02;;
49109;SDS011;34921;52.320;16.142;2023-07-08T10:41:32;4.25;;;2.12;;
49109;SDS011;34921;52.320;16.142;2023-07-08T10:50:09;3.27;;;2.40;;
49109;SDS011;34921;52.320;16.142;2023-07-08T10:53:02;5.75;;;2.35;;
49109;SDS011;34921;52.320;16.142;2023-07-08T11:06:24;5.08;;;2.50;;
49109;SDS011;34921;52.320;16.142;2023-07-08T11:08:57;3.40;;;2.30;;
49109;SDS011;34921;52.320;16.142;2023-07-08T11:19:25;5.97;;;2.30;;
49109;SDS011;34921;52.320;16.142;2023-07-08T11:21:59;4.03;;;2.42;;
49109;SDS011;34921;52.320;16.142;2023-07-08T11:27:11;3.87;;;2.37;;
49109;SDS011;34921;52.320;16.142;2023-07-08T11:29:49;4.80;;;2.70;;
49109;SDS011;34921;52.320;16.142;2023-07-08T11:32:22;3.80;;;2.35;;
49109;SDS011;34921;52.320;16.142;2023-07-08T11:34:51;4.12;;;2.22;;
49109;SDS011;34921;52.320;16.142;2023-07-08T11:37:18;3.62;;;2.50;;
49109;SDS011;34921;52.320;16.142;2023-07-08T11:39:58;4.87;;;2.42;;
49109;SDS011;34921;52.320;16.142;2023-07-08T11:47:49;5.12;;;2.47;;
49109;SDS011;34921;52.320;16.142;2023-07-08T11:52:52;3.30;;;2.30;;
49109;SDS011;34921;52.320;16.142;2023-07-08T11:55:37;3.80;;;2.83;;
49109;SDS011;34921;52.320;16.142;2023-07-08T11:58:22;4.35;;;2.35;;
49109;SDS011;34921;52.320;16.142;2023-07-08T12:00:58;3.85;;;2.72;;
49109;SDS011;34921;52.320;16.142;2023-07-08T12:03:40;4.87;;;2.70;;
49109;SDS011;34921;52.320;16.142;2023-07-08T12:08:59;3.45;;;2.40;;
49109;SDS011;34921;52.320;16.142;2023-07-08T12:11:28;4.00;;;2.22;;
49109;SDS011;34921;52.320;16.142;2023-07-08T12:13:59;4.03;;;2.60;;
49109;SDS011;34921;52.320;16.142;2023-07-08T12:16:28;3.52;;;2.40;;
49109;SDS011;34921;52.320;16.142;2023-07-08T12:18:57;3.83;;;2.52;;
49109;SDS011;34921;52.320;16.142;2023-07-08T12:21:26;6.40;;;2.63;;
49109;SDS011;34921;52.320;16.142;2023-07-08T12:23:54;3.55;;;2.22;;
49109;SDS011;34921;52.320;16.142;2023-07-08T12:26:21;3.90;;;2.55;;
49109;SDS011;34921;52.320;16.142;2023-07-08T12:28:51;3.60;;;2.40;;
49109;SDS011;34921;52.320;16.142;2023-07-08T12:31:19;4.00;;;2.90;;
49109;SDS011;34921;52.320;16.142;2023-07-08T12:33:48;3.83;;;2.58;;
49109;SDS011;34921;52.320;16.142;2023-07-08T12:36:20;5.73;;;2.63;;
49109;SDS011;34921;52.320;16.142;2023-07-08T12:38:52;3.30;;;2.50;;
49109;SDS011;34921;52.320;16.142;2023-07-08T12:41:22;4.40;;;2.72;;
49109;SDS011;34921;52.320;16.142;2023-07-08T12:43:51;3.98;;;2.60;;
49109;SDS011;34921;52.320;16.142;2023-07-08T12:46:20;4.17;;;2.42;;
49109;SDS011;34921;52.320;16.142;2023-07-08T12:48:48;3.50;;;2.33;;
49109;SDS011;34921;52.320;16.142;2023-07-08T12:51:16;3.50;;;2.30;;
49109;SDS011;34921;52.320;16.142;2023-07-08T12:53:50;3.80;;;2.67;;
49109;SDS011;34921;52.320;16.142;2023-07-08T12:56:19;4.25;;;2.77;;
49109;SDS011;34921;52.320;16.142;2023-07-08T12:58:58;5.22;;;2.30;;
49109;SDS011;34921;52.320;16.142;2023-07-08T13:01:26;3.47;;;2.40;;
49109;SDS011;34921;52.320;16.142;2023-07-08T13:03:59;3.12;;;2.22;;
49109;SDS011;34921;52.320;16.142;2023-07-08T13:06:31;4.17;;;2.47;;
49109;SDS011;34921;52.320;16.142;2023-07-08T13:09:02;4.00;;;2.60;;
49109;SDS011;34921;52.320;16.142;2023-07-08T13:11:46;5.25;;;2.45;;
49109;SDS011;34921;52.320;16.142;2023-07-08T13:14:14;5.17;;;2.40;;
49109;SDS011;34921;52.320;16.142;2023-07-08T13:16:42;4.20;;;2.10;;
49109;SDS011;34921;52.320;16.142;2023-07-08T13:19:10;3.75;;;2.30;;
49109;SDS011;34921;52.320;16.142;2023-07-08T13:21:39;4.95;;;2.30;;
49109;SDS011;34921;52.320;16.142;2023-07-08T13:24:08;4.03;;;2.15;;
49109;SDS011;34921;52.320;16.142;2023-07-08T13:26:37;5.72;;;2.20;;
49109;SDS011;34921;52.320;16.142;2023-07-08T13:29:13;3.80;;;2.67;;
49109;SDS011;34921;52.320;16.142;2023-07-08T13:31:43;4.28;;;2.30;;
49109;SDS011;34921;52.320;16.142;2023-07-08T13:34:18;5.25;;;2.45;;
49109;SDS011;34921;52.320;16.142;2023-07-08T13:36:48;3.50;;;2.58;;
49109;SDS011;34921;52.320;16.142;2023-07-08T13:39:27;4.43;;;2.70;;
49109;SDS011;34921;52.320;16.142;2023-07-08T13:41:56;4.05;;;2.47;;
49109;SDS011;34921;52.320;16.142;2023-07-08T13:44:24;3.35;;;2.40;;
49109;SDS011;34921;52.320;16.142;2023-07-08T13:46:53;3.20;;;2.37;;
49109;SDS011;34921;52.320;16.142;2023-07-08T13:49:31;5.10;;;2.23;;
49109;SDS011;34921;52.320;16.142;2023-07-08T13:54:54;4.08;;;2.50;;
49109;SDS011;34921;52.320;16.142;2023-07-08T13:57:33;3.92;;;2.37;;
49109;SDS011;34921;52.320;16.142;2023-07-08T14:00:04;5.70;;;2.30;;
49109;SDS011;34921;52.320;16.142;2023-07-08T14:02:34;4.50;;;2.55;;
49109;SDS011;34921;52.320;16.142;2023-07-08T14:05:01;4.20;;;2.60;;
49109;SDS011;34921;52.320;16.142;2023-07-08T14:07:32;3.60;;;2.47;;
49109;SDS011;34921;52.320;16.142;2023-07-08T14:10:00;4.17;;;2.58;;
49109;SDS011;34921;52.320;16.142;2023-07-08T14:12:27;3.27;;;2.50;;
49109;SDS011;34921;52.320;16.142;2023-07-08T14:14:55;4.37;;;2.47;;
49109;SDS011;34921;52.320;16.142;2023-07-08T14:17:23;4.03;;;2.37;;
49109;SDS011;34921;52.320;16.142;2023-07-08T14:19:54;3.80;;;2.00;;
49109;SDS011;34921;52.320;16.142;2023-07-08T14:24:50;3.98;;;2.70;;
49109;SDS011;34921;52.320;16.142;2023-07-08T14:27:17;3.95;;;2.70;;
49109;SDS011;34921;52.320;16.142;2023-07-08T14:29:46;4.35;;;2.50;;
49109;SDS011;34921;52.320;16.142;2023-07-08T14:32:22;4.22;;;2.60;;
49109;SDS011;34921;52.320;16.142;2023-07-08T14:35:08;3.95;;;2.60;;
49109;SDS011;34921;52.320;16.142;2023-07-08T14:37:36;4.55;;;2.50;;
49109;SDS011;34921;52.320;16.142;2023-07-08T14:45:37;4.72;;;2.58;;
49109;SDS011;34921;52.320;16.142;2023-07-08T14:48:10;4.40;;;2.60;;
49109;SDS011;34921;52.320;16.142;2023-07-08T14:50:38;3.85;;;2.35;;
49109;SDS011;34921;52.320;16.142;2023-07-08T14:53:06;5.47;;;2.70;;
49109;SDS011;34921;52.320;16.142;2023-07-08T14:55:33;3.35;;;2.40;;
49109;SDS011;34921;52.320;16.142;2023-07-08T14:58:02;3.58;;;2.45;;
49109;SDS011;34921;52.320;16.142;2023-07-08T15:00:30;3.67;;;2.50;;
49109;SDS011;34921;52.320;16.142;2023-07-08T15:02:57;4.40;;;2.37;;
49109;SDS011;34921;52.320;16.142;2023-07-08T15:05:26;3.50;;;2.30;;
49109;SDS011;34921;52.320;16.142;2023-07-08T15:07:55;3.58;;;2.42;;
49109;SDS011;34921;52.320;16.142;2023-07-08T15:10:25;4.10;;;2.30;;
49109;SDS011;34921;52.320;16.142;2023-07-08T15:12:54;3.75;;;2.22;;
49109;SDS011;34921;52.320;16.142;2023-07-08T15:18:00;4.05;;;2.20;;
49109;SDS011;34921;52.320;16.142;2023-07-08T15:20:33;4.83;;;2.50;;
49109;SDS011;34921;52.320;16.142;2023-07-08T15:23:01;3.55;;;2.60;;
49109;SDS011;34921;52.320;16.142;2023-07-08T15:25:28;4.17;;;2.70;;
49109;SDS011;34921;52.320;16.142;2023-07-08T15:27:55;4.15;;;2.55;;
49109;SDS011;34921;52.320;16.142;2023-07-08T15:30:26;4.28;;;2.95;;
49109;SDS011;34921;52.320;16.142;2023-07-08T15:32:55;4.03;;;2.92;;
49109;SDS011;34921;52.320;16.142;2023-07-08T15:35:24;4.40;;;2.92;;
49109;SDS011;34921;52.320;16.142;2023-07-08T15:37:57;3.85;;;2.60;;
49109;SDS011;34921;52.320;16.142;2023-07-08T15:40:26;7.05;;;2.55;;
49109;SDS011;34921;52.320;16.142;2023-07-08T15:42:57;4.20;;;2.90;;
49109;SDS011;34921;52.320;16.142;2023-07-08T15:45:36;5.90;;;2.43;;
49109;SDS011;34921;52.320;16.142;2023-07-08T15:48:04;6.08;;;2.47;;
49109;SDS011;34921;52.320;16.142;2023-07-08T15:50:32;4.17;;;2.47;;
49109;SDS011;34921;52.320;16.142;2023-07-08T15:52:59;4.70;;;2.50;;
49109;SDS011;34921;52.320;16.142;2023-07-08T15:55:28;4.15;;;2.52;;
49109;SDS011;34921;52.320;16.142;2023-07-08T15:58:02;6.62;;;2.70;;
49109;SDS011;34921;52.320;16.142;2023-07-08T16:00:32;5.05;;;2.60;;
49109;SDS011;34921;52.320;16.142;2023-07-08T16:03:04;4.30;;;2.35;;
49109;SDS011;34921;52.320;16.142;2023-07-08T16:05:34;3.70;;;2.40;;
49109;SDS011;34921;52.320;16.142;2023-07-08T16:08:03;4.97;;;2.90;;
49109;SDS011;34921;52.320;16.142;2023-07-08T16:10:30;4.75;;;2.65;;
49109;SDS011;34921;52.320;16.142;2023-07-08T16:12:58;4.07;;;2.53;;
49109;SDS011;34921;52.320;16.142;2023-07-08T16:15:31;3.08;;;2.35;;
49109;SDS011;34921;52.320;16.142;2023-07-08T16:18:00;4.78;;;2.58;;
49109;SDS011;34921;52.320;16.142;2023-07-08T16:20:28;4.28;;;2.50;;
49109;SDS011;34921;52.320;16.142;2023-07-08T16:22:56;6.47;;;2.50;;